Time;durP1;ratioP1;P1;durP2;ratioP2;P2;SDS_P1;SDS_P2;PMS_P1;PMS_P2;Temp;Humidity;BMP_temperature;BMP_pressure;BME280_temperature;BME280_humidity;BME280_pressure;Samples;Min_cycle;Max_cycle;Signal;HPM_P1;HPM_P2
2022/10/16 00:02:16;;;;;;;10.13;1.00;;;;;;;15.72;100.00;99937.84;5031809;28;20513;-55
2022/10/16 00:04:42;;;;;;;3.60;1.33;;;;;;;15.75;100.00;99950.22;5018241;28;20427;-56
2022/10/16 00:07:09;;;;;;;1.20;1.10;;;;;;;15.72;100.00;99943.22;5021157;28;20430;-56
2022/10/16 00:09:35;;;;;;;0.97;0.97;;;;;;;15.70;100.00;99929.03;5031982;28;20486;-55
2022/10/16 00:12:04;;;;;;;0.50;0.43;;;;;;;15.59;100.00;99931.41;5031876;28;20487;-56
2022/10/16 00:14:30;;;;;;;1.23;0.87;;;;;;;15.55;100.00;99932.53;5020074;28;20475;-55
2022/10/16 00:16:56;;;;;;;0.57;0.53;;;;;;;15.62;100.00;99929.47;5031520;28;20491;-55
2022/10/16 00:19:23;;;;;;;2.00;0.53;;;;;;;15.67;100.00;99924.72;5031441;28;20449;-55
2022/10/16 00:21:49;;;;;;;8.20;0.50;;;;;;;15.60;100.00;99931.34;5022868;28;20440;-56
2022/10/16 00:24:16;;;;;;;1.90;0.40;;;;;;;15.80;100.00;99942.78;5018132;28;20527;-55
2022/10/16 00:26:42;;;;;;;0.87;0.87;;;;;;;15.74;100.00;99937.75;5030826;28;20451;-56
2022/10/16 00:29:09;;;;;;;1.17;0.73;;;;;;;15.74;100.00;99938.63;5031087;28;20525;-56
2022/10/16 00:31:38;;;;;;;5.90;1.07;;;;;;;15.89;100.00;99947.63;5030967;28;20936;-56
2022/10/16 00:34:04;;;;;;;1.43;0.67;;;;;;;15.87;100.00;99938.81;5022972;28;20463;-55
2022/10/16 00:36:31;;;;;;;2.00;1.63;;;;;;;15.73;100.00;99933.34;5025561;28;20533;-55
2022/10/16 00:39:00;;;;;;;0.87;0.50;;;;;;;15.68;100.00;99929.13;5030633;28;20450;-56
2022/10/16 00:41:32;;;;;;;0.50;0.40;;;;;;;15.86;100.00;99947.81;5031414;28;20455;-56
2022/10/16 00:44:22;;;;;;;0.50;0.30;;;;;;;15.93;100.00;99946.53;5024685;28;20460;-56
2022/10/16 00:46:50;;;;;;;0.50;0.50;;;;;;;15.94;100.00;99945.56;5030650;28;20455;-56
2022/10/16 00:49:20;;;;;;;6.00;0.50;;;;;;;15.97;100.00;99946.25;5030808;28;20525;-55
2022/10/16 00:51:53;;;;;;;0.60;0.50;;;;;;;15.82;100.00;99947.13;5030787;28;20496;-55
2022/10/16 00:54:25;;;;;;;0.60;0.50;;;;;;;15.83;100.00;99939.94;5027212;28;21001;-56
2022/10/16 00:56:53;;;;;;;0.50;0.43;;;;;;;15.96;100.00;99946.34;5018307;28;20462;-55
2022/10/16 00:59:24;;;;;;;0.87;0.80;;;;;;;15.97;100.00;99937.34;5030560;28;20471;-55
2022/10/16 01:01:51;;;;;;;0.80;0.70;;;;;;;15.98;100.00;99939.94;5030316;28;20422;-55
2022/10/16 01:04:19;;;;;;;1.90;0.97;;;;;;;16.17;100.00;99947.81;5029314;28;20460;-55
2022/10/16 01:06:51;;;;;;;0.67;0.43;;;;;;;16.11;100.00;99953.50;5029227;28;20423;-55
2022/10/16 01:09:42;;;;;;;1.00;0.90;;;;;;;16.17;100.00;99950.50;5028764;28;20508;-56
2022/10/16 01:12:23;;;;;;;7.20;0.60;;;;;;;16.15;100.00;99956.88;4967978;28;20510;-55
2022/10/16 01:15:01;;;;;;;0.50;0.40;;;;;;;16.08;100.00;99963.56;5019298;28;20841;-55
2022/10/16 01:17:45;;;;;;;1.07;0.40;;;;;;;16.13;100.00;99964.16;5030511;28;20515;-56
2022/10/16 01:20:18;;;;;;;3.23;0.50;;;;;;;16.15;100.00;99963.09;4999685;28;20439;-56
2022/10/16 01:22:53;;;;;;;0.80;0.60;;;;;;;16.11;100.00;99974.09;5013628;28;20497;-56
2022/10/16 01:25:31;;;;;;;0.67;0.57;;;;;;;16.09;100.00;99971.50;5013217;28;20433;-55
2022/10/16 01:28:01;;;;;;;0.53;0.47;;;;;;;16.03;100.00;99965.63;5027430;28;20905;-56
2022/10/16 01:30:32;;;;;;;0.70;0.53;;;;;;;15.86;100.00;99959.38;5023858;28;20437;-55
2022/10/16 01:33:09;;;;;;;0.97;0.60;;;;;;;15.92;100.00;99963.56;5030501;28;20480;-55
2022/10/16 01:35:41;;;;;;;1.80;0.73;;;;;;;15.97;100.00;99962.34;5024964;28;20991;-55
2022/10/16 01:38:15;;;;;;;0.70;0.70;;;;;;;15.91;100.00;99975.22;5029891;28;20526;-55
2022/10/16 01:40:49;;;;;;;0.60;0.50;;;;;;;16.03;100.00;99968.28;5027223;28;20429;-55
2022/10/16 01:43:24;;;;;;;0.70;0.63;;;;;;;16.03;100.00;99966.47;5019106;28;20430;-55
2022/10/16 01:45:52;;;;;;;8.23;0.83;;;;;;;16.19;100.00;99963.81;5029541;28;20922;-55
2022/10/16 01:48:21;;;;;;;0.80;0.70;;;;;;;16.20;100.00;99961.06;5029662;28;20442;-56
2022/10/16 01:51:12;;;;;;;16.23;1.33;;;;;;;16.23;100.00;99971.59;5026840;28;20493;-55
2022/10/16 01:53:40;;;;;;;0.70;0.53;;;;;;;16.19;100.00;99962.00;5026986;28;20459;-55
2022/10/16 01:56:11;;;;;;;0.90;0.60;;;;;;;16.17;100.00;99971.97;5026933;28;20434;-56
2022/10/16 01:58:44;;;;;;;2.67;0.87;;;;;;;16.26;100.00;99978.59;5029331;28;20445;-55
2022/10/16 02:01:15;;;;;;;0.77;0.50;;;;;;;16.25;100.00;99977.72;5023625;28;20438;-56
2022/10/16 02:03:52;;;;;;;0.90;0.83;;;;;;;16.40;100.00;99977.81;5017475;28;20437;-55
2022/10/16 02:06:19;;;;;;;0.80;0.73;;;;;;;16.57;100.00;99983.91;5025992;28;20562;-56
2022/10/16 02:08:46;;;;;;;0.97;0.97;;;;;;;16.55;100.00;99990.34;5021391;28;20541;-55
2022/10/16 02:11:12;;;;;;;0.70;0.60;;;;;;;16.60;100.00;99993.63;5029132;28;20459;-55
2022/10/16 02:13:47;;;;;;;0.63;0.60;;;;;;;16.61;100.00;99990.00;5020771;28;20431;-55
2022/10/16 02:16:14;;;;;;;0.60;0.50;;;;;;;16.58;100.00;99987.47;5026218;28;20451;-56
2022/10/16 02:18:43;;;;;;;1.10;0.87;;;;;;;16.57;100.00;99986.59;5019183;28;20525;-56
2022/10/16 02:21:18;;;;;;;0.50;0.43;;;;;;;16.59;100.00;99989.22;5022948;28;20431;-55
2022/10/16 02:24:00;;;;;;;0.77;0.60;;;;;;;16.59;100.00;99991.91;5003329;28;20451;-55
2022/10/16 02:26:45;;;;;;;15.23;0.70;;;;;;;16.56;100.00;100002.78;5024602;28;20426;-56
2022/10/16 02:29:16;;;;;;;0.60;0.50;;;;;;;16.48;100.00;100008.63;5028815;28;20471;-56
2022/10/16 02:31:47;;;;;;;0.80;0.73;;;;;;;16.47;100.00;100006.03;5028889;28;20430;-56
2022/10/16 02:34:16;;;;;;;0.70;0.70;;;;;;;16.43;100.00;99999.09;5028797;28;20956;-55
2022/10/16 02:36:43;;;;;;;0.80;0.80;;;;;;;16.39;100.00;99998.41;5026710;28;20462;-55
2022/10/16 02:39:11;;;;;;;1.53;1.43;;;;;;;16.28;100.00;100001.69;5028798;28;20446;-56
2022/10/16 02:41:38;;;;;;;1.07;0.97;;;;;;;16.32;100.00;99998.84;5028855;28;20455;-55
2022/10/16 02:44:04;;;;;;;2.60;1.00;;;;;;;16.35;100.00;99990.63;5018505;28;20487;-55
2022/10/16 02:46:31;;;;;;;0.80;0.73;;;;;;;16.25;100.00;99999.19;5020643;28;20902;-55
2022/10/16 02:48:57;;;;;;;1.80;1.00;;;;;;;16.23;100.00;99998.41;5028705;28;20508;-55
2022/10/16 02:51:24;;;;;;;0.60;0.60;;;;;;;16.41;100.00;100006.34;5028783;28;20968;-55
2022/10/16 02:53:50;;;;;;;3.07;0.60;;;;;;;16.44;100.00;100009.72;5025276;28;20865;-55
2022/10/16 02:56:16;;;;;;;0.60;0.40;;;;;;;16.46;100.00;99999.78;5020553;28;20430;-56
2022/10/16 02:58:48;;;;;;;0.67;0.60;;;;;;;16.57;100.00;99996.47;5028291;28;20466;-55
2022/10/16 03:01:16;;;;;;;0.70;0.70;;;;;;;16.65;100.00;100002.28;5028674;28;20513;-55
2022/10/16 03:03:43;;;;;;;9.37;1.47;;;;;;;16.56;100.00;100000.09;5025949;28;20463;-56
2022/10/16 03:06:09;;;;;;;0.73;0.70;;;;;;;16.47;100.00;100006.91;5028578;28;20479;-56
2022/10/16 03:08:35;;;;;;;0.83;0.80;;;;;;;16.41;100.00;100017.09;5028891;28;21067;-56
2022/10/16 03:11:02;;;;;;;1.27;0.60;;;;;;;16.40;100.00;100012.69;5027598;28;20459;-56
2022/10/16 03:13:28;;;;;;;0.50;0.40;;;;;;;16.29;100.00;100011.47;5010462;28;20435;-56
2022/10/16 03:15:54;;;;;;;0.70;0.70;;;;;;;16.31;100.00;100006.03;5022324;28;20484;-55
2022/10/16 03:18:21;;;;;;;0.93;0.93;;;;;;;16.35;100.00;100007.59;5024033;28;20471;-55
2022/10/16 03:20:47;;;;;;;0.70;0.70;;;;;;;16.39;100.00;100010.94;5022428;28;20856;-55
2022/10/16 03:23:14;;;;;;;1.23;0.97;;;;;;;16.34;100.00;100011.22;5003780;28;20441;-55
2022/10/16 03:25:40;;;;;;;25.73;0.90;;;;;;;16.24;100.00;100000.16;5028312;28;20430;-56
2022/10/16 03:28:06;;;;;;;0.70;0.60;;;;;;;16.12;100.00;99999.97;5025911;28;20446;-55
2022/10/16 03:30:33;;;;;;;0.63;0.50;;;;;;;15.99;100.00;100002.47;5025658;28;20456;-56
2022/10/16 03:32:59;;;;;;;1.00;0.97;;;;;;;15.96;100.00;100014.22;5032468;28;20430;-55
2022/10/16 03:35:25;;;;;;;0.50;0.40;;;;;;;16.07;100.00;100027.03;5014457;28;20459;-55
2022/10/16 03:37:52;;;;;;;2.30;1.43;;;;;;;15.99;100.00;100029.28;5032186;28;20553;-55
2022/10/16 03:40:19;;;;;;;1.53;0.53;;;;;;;16.04;100.00;100035.28;5026896;28;20430;-55
2022/10/16 03:42:46;;;;;;;0.60;0.60;;;;;;;16.10;100.00;100034.91;5032101;28;20430;-56
2022/10/16 03:45:12;;;;;;;1.10;1.00;;;;;;;16.08;100.00;100018.06;5028345;28;20853;-55
2022/10/16 03:47:38;;;;;;;0.70;0.60;;;;;;;15.99;100.00;100024.78;5031938;28;20852;-56
2022/10/16 03:50:05;;;;;;;0.80;0.80;;;;;;;15.98;100.00;100023.03;5027506;28;20891;-55
2022/10/16 03:52:32;;;;;;;0.50;0.50;;;;;;;15.98;100.00;100028.41;5020567;28;20920;-55
2022/10/16 03:54:59;;;;;;;1.07;1.07;;;;;;;16.05;100.00;100044.19;5027278;28;20427;-56
2022/10/16 03:57:25;;;;;;;0.60;0.50;;;;;;;16.08;100.00;100036.81;5028400;28;20490;-55
2022/10/16 03:59:52;;;;;;;1.57;1.30;;;;;;;15.94;100.00;100029.53;5019288;28;20820;-55
2022/10/16 04:02:18;;;;;;;0.50;0.50;;;;;;;15.74;100.00;100016.34;5025854;28;20485;-55
2022/10/16 04:04:45;;;;;;;0.60;0.50;;;;;;;15.80;100.00;100016.03;5021169;28;20469;-56
2022/10/16 04:07:11;;;;;;;0.63;0.60;;;;;;;15.82;100.00;100016.81;5019656;28;20485;-56
2022/10/16 04:09:38;;;;;;;0.50;0.40;;;;;;;15.93;100.00;100016.22;5027444;28;20903;-56
2022/10/16 04:12:04;;;;;;;0.70;0.60;;;;;;;15.97;100.00;100018.63;5031735;28;20476;-55
2022/10/16 04:14:30;;;;;;;1.33;0.50;;;;;;;15.99;100.00;100016.72;5020898;28;20434;-55
2022/10/16 04:16:57;;;;;;;0.57;0.50;;;;;;;16.00;100.00;100022.97;5031247;28;20462;-55
2022/10/16 04:19:23;;;;;;;1.57;0.50;;;;;;;16.01;100.00;100030.06;5016114;28;20517;-56
2022/10/16 04:21:49;;;;;;;0.87;0.80;;;;;;;16.06;100.00;100037.88;5022861;28;20546;-56
2022/10/16 04:24:16;;;;;;;0.53;0.53;;;;;;;16.05;100.00;100033.44;5026947;28;21390;-56
2022/10/16 04:26:42;;;;;;;0.60;0.60;;;;;;;15.95;100.00;100030.41;5022608;28;20477;-55
2022/10/16 04:29:08;;;;;;;0.63;0.50;;;;;;;15.95;100.00;100031.28;5018192;28;21071;-56
2022/10/16 04:31:35;;;;;;;0.40;0.30;;;;;;;15.94;100.00;100036.72;5031261;28;20509;-55
2022/10/16 04:34:01;;;;;;;0.80;0.50;;;;;;;15.87;100.00;100038.84;5031103;28;20456;-55
2022/10/16 04:36:28;;;;;;;2.30;2.20;;;;;;;15.88;100.00;100039.72;5024749;28;20949;-56
2022/10/16 04:38:55;;;;;;;0.97;0.43;;;;;;;15.86;100.00;100049.66;5013827;28;20509;-56
2022/10/16 04:41:21;;;;;;;0.40;0.30;;;;;;;15.78;100.00;100038.50;5030828;28;20456;-55
2022/10/16 04:43:47;;;;;;;2.30;0.83;;;;;;;15.67;100.00;100031.91;5021895;28;20431;-55
2022/10/16 04:46:14;;;;;;;0.53;0.50;;;;;;;15.57;100.00;100041.34;5030903;28;20574;-55
2022/10/16 04:48:40;;;;;;;8.13;0.50;;;;;;;15.62;100.00;100052.72;5030670;28;20480;-56
2022/10/16 04:51:06;;;;;;;0.50;0.40;;;;;;;15.57;100.00;100051.19;5026150;28;20453;-56
2022/10/16 04:53:34;;;;;;;0.50;0.40;;;;;;;15.61;100.00;100058.13;5027036;28;20459;-55
2022/10/16 04:56:00;;;;;;;0.70;0.43;;;;;;;15.62;100.00;100049.16;5031157;28;20426;-55
2022/10/16 04:58:26;;;;;;;0.60;0.50;;;;;;;15.63;100.00;100040.19;5030462;28;20545;-56
2022/10/16 05:00:53;;;;;;;0.60;0.50;;;;;;;15.51;100.00;100041.66;5027687;28;20426;-55
2022/10/16 05:03:19;;;;;;;0.90;0.60;;;;;;;15.47;100.00;100045.44;5027091;28;20844;-55
2022/10/16 05:05:46;;;;;;;2.60;0.43;;;;;;;15.37;100.00;100044.22;5027955;28;20467;-55
2022/10/16 05:08:15;;;;;;;0.80;0.80;;;;;;;15.36;100.00;100053.19;5016942;28;20454;-55
2022/10/16 05:10:43;;;;;;;0.50;0.40;;;;;;;15.38;100.00;100046.81;5030803;28;20849;-56
2022/10/16 05:13:10;;;;;;;0.80;0.67;;;;;;;15.36;100.00;100038.00;5028201;28;20472;-55
2022/10/16 05:15:36;;;;;;;0.40;0.30;;;;;;;15.41;100.00;100041.28;5021649;28;20456;-56
2022/10/16 05:18:03;;;;;;;0.60;0.53;;;;;;;15.40;100.00;100046.72;5005060;28;20512;-56
2022/10/16 05:20:29;;;;;;;0.50;0.47;;;;;;;15.41;100.00;100043.97;5030184;28;21214;-55
2022/10/16 05:22:56;;;;;;;0.70;0.70;;;;;;;15.44;100.00;100050.97;5012366;28;20490;-55
2022/10/16 05:25:22;;;;;;;1.53;0.67;;;;;;;15.57;100.00;100054.72;5022273;28;20526;-56
2022/10/16 05:27:50;;;;;;;0.70;0.57;;;;;;;15.53;100.00;100065.69;5029755;28;20448;-55
2022/10/16 05:30:17;;;;;;;2.10;0.50;;;;;;;15.63;100.00;100067.84;5030067;28;20434;-55
2022/10/16 05:32:50;;;;;;;4.20;0.93;;;;;;;15.58;100.00;100069.00;5019028;28;21077;-56
2022/10/16 05:35:18;;;;;;;6.00;1.50;;;;;;;15.58;100.00;100066.31;5018504;28;20442;-58
2022/10/16 05:37:49;;;;;;;0.63;0.50;;;;;;;15.60;100.00;100078.72;5029918;28;20962;-56
2022/10/16 05:40:16;;;;;;;0.57;0.40;;;;;;;15.64;100.00;100085.66;5029737;28;21010;-55
2022/10/16 05:42:42;;;;;;;0.63;0.40;;;;;;;15.58;100.00;100085.06;5025998;28;20460;-56
2022/10/16 05:45:11;;;;;;;0.60;0.40;;;;;;;15.53;100.00;100074.59;5025276;28;20509;-56
2022/10/16 05:47:38;;;;;;;0.80;0.63;;;;;;;15.64;100.00;100085.66;5029597;28;20449;-56
2022/10/16 05:50:05;;;;;;;0.60;0.40;;;;;;;15.76;100.00;100089.50;5027351;28;20472;-55
2022/10/16 05:52:31;;;;;;;1.00;0.70;;;;;;;15.73;100.00;100088.78;5029165;28;20518;-55
2022/10/16 05:54:57;;;;;;;0.40;0.30;;;;;;;15.74;100.00;100085.16;5029555;28;20514;-56
2022/10/16 05:57:24;;;;;;;0.40;0.30;;;;;;;15.75;100.00;100094.94;5029397;28;20473;-56
2022/10/16 05:59:51;;;;;;;0.60;0.50;;;;;;;15.75;100.00;100097.59;5027330;28;20474;-56
2022/10/16 06:02:17;;;;;;;0.40;0.30;;;;;;;15.63;100.00;100091.97;4992185;28;20501;-56
2022/10/16 06:04:44;;;;;;;0.50;0.40;;;;;;;15.74;100.00;100099.41;5024528;28;20457;-56
2022/10/16 06:07:10;;;;;;;0.60;0.50;;;;;;;15.79;100.00;100085.78;5029798;28;20456;-56
2022/10/16 06:09:37;;;;;;;0.40;0.30;;;;;;;15.75;100.00;100089.56;5022982;28;20480;-55
2022/10/16 06:12:03;;;;;;;0.63;0.47;;;;;;;15.78;100.00;100098.34;5011150;28;20491;-55
2022/10/16 06:14:30;;;;;;;3.10;0.70;;;;;;;15.72;100.00;100085.25;5012881;28;20461;-55
2022/10/16 06:16:56;;;;;;;9.43;1.70;;;;;;;15.62;100.00;100086.66;5029399;28;20455;-55
2022/10/16 06:19:23;;;;;;;23.67;0.77;;;;;;;15.60;100.00;100092.09;5028795;28;21090;-56
2022/10/16 06:21:49;;;;;;;0.50;0.40;;;;;;;15.72;100.00;100100.44;5020671;28;20431;-55
2022/10/16 06:24:15;;;;;;;0.50;0.50;;;;;;;15.71;100.00;100091.53;5025055;28;20460;-56
2022/10/16 06:26:42;;;;;;;4.33;0.60;;;;;;;15.62;100.00;100100.06;5028369;28;20434;-55
2022/10/16 06:29:08;;;;;;;0.90;0.67;;;;;;;15.48;100.00;100098.06;5028432;28;20471;-55
2022/10/16 06:31:35;;;;;;;11.57;0.60;;;;;;;15.54;100.00;100100.44;5025726;28;20531;-55
2022/10/16 06:34:02;;;;;;;0.60;0.40;;;;;;;15.63;100.00;100110.72;5025198;28;20455;-55
2022/10/16 06:36:28;;;;;;;0.60;0.60;;;;;;;15.73;100.00;100118.25;5028842;28;20501;-56
2022/10/16 06:38:55;;;;;;;0.67;0.50;;;;;;;15.79;100.00;100113.47;5028874;28;20474;-57
2022/10/16 06:41:22;;;;;;;2.53;0.87;;;;;;;15.68;100.00;100113.16;5019698;28;21002;-55
2022/10/16 06:43:49;;;;;;;0.70;0.57;;;;;;;15.80;100.00;100114.34;5018260;28;20430;-55
2022/10/16 06:46:18;;;;;;;0.57;0.57;;;;;;;15.83;100.00;100128.44;5009192;28;20439;-55
2022/10/16 06:48:45;;;;;;;1.23;1.13;;;;;;;15.86;100.00;100127.38;5025707;28;20467;-56
2022/10/16 06:51:17;;;;;;;1.70;1.13;;;;;;;15.87;100.00;100124.63;5020282;28;20459;-55
2022/10/16 06:53:49;;;;;;;0.60;0.50;;;;;;;15.94;100.00;100130.53;5028681;28;20447;-55
2022/10/16 06:56:32;;;;;;;0.40;0.40;;;;;;;15.94;100.00;100139.44;5028779;28;20419;-56
2022/10/16 06:58:59;;;;;;;0.70;0.70;;;;;;;15.98;100.00;100140.16;5028631;28;20481;-55
2022/10/16 07:01:26;;;;;;;0.50;0.50;;;;;;;15.96;100.00;100145.59;5025540;28;20781;-56
2022/10/16 07:03:53;;;;;;;0.50;0.40;;;;;;;16.03;100.00;100153.31;5028669;28;20946;-55
2022/10/16 07:06:23;;;;;;;0.50;0.40;;;;;;;16.07;100.00;100142.34;5032577;28;20947;-56
2022/10/16 07:08:51;;;;;;;0.50;0.40;;;;;;;16.04;100.00;100139.84;5026577;28;20443;-56
2022/10/16 07:11:20;;;;;;;6.60;0.67;;;;;;;16.00;100.00;100136.44;5028561;28;20517;-55
2022/10/16 07:13:48;;;;;;;0.60;0.53;;;;;;;16.11;100.00;100148.41;5024718;28;20853;-55
2022/10/16 07:16:23;;;;;;;0.50;0.50;;;;;;;16.16;100.00;100157.06;5019876;28;20455;-56
2022/10/16 07:18:51;;;;;;;1.83;0.60;;;;;;;16.25;100.00;100154.75;5022254;28;20466;-55
2022/10/16 07:21:22;;;;;;;2.10;0.87;;;;;;;16.23;100.00;100161.16;5014675;28;20812;-56
2022/10/16 07:23:56;;;;;;;0.80;0.60;;;;;;;16.27;100.00;100168.94;5021779;28;20943;-56
2022/10/16 07:26:23;;;;;;;1.10;0.90;;;;;;;16.32;100.00;100175.91;5026237;28;20458;-56
2022/10/16 07:28:50;;;;;;;0.97;0.97;;;;;;;16.33;100.00;100173.13;5009980;28;20464;-55
2022/10/16 07:31:19;;;;;;;3.50;1.00;;;;;;;16.32;100.00;100174.09;5024079;28;20948;-57
2022/10/16 07:33:47;;;;;;;8.10;1.90;;;;;;;16.35;100.00;100168.56;5011030;28;20461;-55
2022/10/16 07:36:15;;;;;;;0.50;0.50;;;;;;;16.44;100.00;100173.38;5012248;28;20452;-57
2022/10/16 07:38:42;;;;;;;1.53;0.80;;;;;;;16.36;100.00;100183.69;5021124;28;20467;-56
2022/10/16 07:41:11;;;;;;;0.63;0.53;;;;;;;16.39;100.00;100186.19;5031107;28;20462;-55
2022/10/16 07:43:37;;;;;;;1.27;0.60;;;;;;;16.44;100.00;100194.00;5014608;28;20430;-55
2022/10/16 07:46:04;;;;;;;0.70;0.70;;;;;;;16.43;100.00;100197.63;5023011;28;20482;-55
2022/10/16 07:48:33;;;;;;;2.53;1.43;;;;;;;16.54;100.00;100204.16;5020278;28;20975;-55
2022/10/16 07:51:02;;;;;;;1.83;1.73;;;;;;;16.47;100.00;100208.13;5022624;28;20434;-55
2022/10/16 07:53:28;;;;;;;1.07;0.97;;;;;;;16.44;100.00;100221.69;5023043;28;20456;-55
2022/10/16 07:55:59;;;;;;;0.93;0.93;;;;;;;16.48;100.00;100230.47;5012359;28;21020;-55
2022/10/16 07:58:27;;;;;;;2.10;0.90;;;;;;;16.46;100.00;100227.00;5004822;28;20949;-55
2022/10/16 08:00:54;;;;;;;1.23;1.17;;;;;;;16.45;100.00;100244.06;5022170;28;20941;-55
2022/10/16 08:03:21;;;;;;;1.07;0.97;;;;;;;16.38;100.00;100239.94;5026607;28;20463;-55
2022/10/16 08:05:48;;;;;;;1.93;1.77;;;;;;;16.55;100.00;100235.41;5015787;28;20434;-56
2022/10/16 08:08:16;;;;;;;0.70;0.60;;;;;;;16.85;100.00;100240.06;5025422;28;20552;-56
2022/10/16 08:10:42;;;;;;;2.10;1.03;;;;;;;16.63;100.00;100234.13;5021537;28;20493;-55
2022/10/16 08:13:14;;;;;;;2.23;1.63;;;;;;;16.59;100.00;100245.03;5026122;28;20457;-55
2022/10/16 08:15:42;;;;;;;1.00;0.70;;;;;;;16.63;100.00;100251.09;5013700;28;20471;-56
2022/10/16 08:18:10;;;;;;;0.90;0.90;;;;;;;16.64;100.00;100255.53;5016634;28;20488;-56
2022/10/16 08:20:37;;;;;;;17.13;2.33;;;;;;;16.60;100.00;100251.28;5018126;28;20460;-56
2022/10/16 08:23:03;;;;;;;1.20;0.77;;;;;;;16.63;100.00;100251.09;5013105;28;20523;-56
2022/10/16 08:25:30;;;;;;;1.40;1.30;;;;;;;16.66;100.00;100252.75;5023573;28;20451;-55
2022/10/16 08:27:56;;;;;;;1.10;1.10;;;;;;;16.66;100.00;100264.34;5015807;28;20851;-56
2022/10/16 08:30:23;;;;;;;1.73;1.63;;;;;;;16.68;100.00;100267.84;5023526;28;20507;-55
2022/10/16 08:32:50;;;;;;;1.50;1.40;;;;;;;16.89;100.00;100271.19;5018482;28;20886;-56
2022/10/16 08:35:16;;;;;;;1.23;1.03;;;;;;;16.74;100.00;100270.22;5031091;28;20447;-56
2022/10/16 08:37:43;;;;;;;1.30;1.20;;;;;;;16.77;100.00;100270.03;5031089;28;20596;-56
2022/10/16 08:40:23;;;;;;;2.83;1.67;;;;;;;16.94;100.00;100282.53;5030963;28;20456;-56
2022/10/16 08:43:12;;;;;;;1.60;1.50;;;;;;;16.85;100.00;100286.59;5008442;28;20797;-56
2022/10/16 08:45:52;;;;;;;2.07;1.97;;;;;;;16.91;100.00;100281.84;5027487;28;20426;-56
2022/10/16 08:48:30;;;;;;;1.00;0.83;;;;;;;16.98;100.00;100284.09;5030634;28;20963;-56
2022/10/16 08:50:56;;;;;;;0.70;0.60;;;;;;;17.24;100.00;100288.03;5030144;28;20439;-56
2022/10/16 08:53:48;;;;;;;1.20;1.10;;;;;;;17.29;100.00;100304.78;5017172;28;20493;-56
2022/10/16 08:56:15;;;;;;;0.80;0.80;;;;;;;17.36;100.00;100299.91;5022166;28;20501;-56
2022/10/16 08:58:48;;;;;;;5.90;1.40;;;;;;;17.34;100.00;100293.75;5021026;28;20509;-56
2022/10/16 09:01:20;;;;;;;0.50;0.50;;;;;;;17.65;100.00;100301.78;5019974;28;20450;-56
2022/10/16 09:04:12;;;;;;;0.70;0.63;;;;;;;17.46;100.00;100296.63;5026313;28;20438;-56
2022/10/16 09:06:38;;;;;;;0.87;0.50;;;;;;;17.61;100.00;100296.69;5015577;28;20851;-56
2022/10/16 09:09:17;;;;;;;10.03;1.47;;;;;;;17.83;100.00;100307.97;5018885;28;20785;-57
2022/10/16 09:11:58;;;;;;;1.73;0.80;;;;;;;17.67;100.00;100316.00;5015292;28;20540;-57
2022/10/16 09:14:40;;;;;;;1.33;1.20;;;;;;;17.70;100.00;100321.28;5017317;28;21016;-57
2022/10/16 09:17:35;;;;;;;1.23;1.13;;;;;;;17.82;100.00;100332.25;5011053;28;20460;-57
2022/10/16 09:20:31;;;;;;;0.50;0.40;;;;;;;17.72;100.00;100335.47;5005850;28;20679;-57
2022/10/16 09:23:11;;;;;;;0.40;0.30;;;;;;;18.08;100.00;100325.34;5017510;28;20429;-57
2022/10/16 09:25:41;;;;;;;0.50;0.37;;;;;;;18.00;100.00;100339.25;5030267;28;20426;-57
2022/10/16 09:28:09;;;;;;;0.50;0.40;;;;;;;17.85;100.00;100327.59;5029042;28;20468;-57
2022/10/16 09:30:37;;;;;;;0.60;0.40;;;;;;;17.63;100.00;100329.72;5029739;28;20453;-57
2022/10/16 09:33:04;;;;;;;0.60;0.50;;;;;;;17.85;100.00;100327.59;5030367;28;20456;-57
2022/10/16 09:35:38;;;;;;;0.63;0.43;;;;;;;17.83;100.00;100328.63;5029994;28;20452;-57
2022/10/16 09:38:05;;;;;;;1.13;0.77;;;;;;;18.14;100.00;100330.38;5030141;28;20471;-57
2022/10/16 09:40:38;;;;;;;0.63;0.63;;;;;;;18.22;100.00;100330.78;5029773;28;20455;-57
2022/10/16 09:43:19;;;;;;;0.90;0.53;;;;;;;18.05;100.00;100339.84;5028416;28;20859;-57
2022/10/16 09:45:56;;;;;;;0.73;0.60;;;;;;;18.04;100.00;100348.88;5029093;28;20451;-57
2022/10/16 09:48:23;;;;;;;0.57;0.40;;;;;;;17.98;100.00;100350.13;5029664;28;21044;-57
2022/10/16 09:50:57;;;;;;;0.70;0.50;;;;;;;18.01;100.00;100354.44;5029764;28;20504;-57
2022/10/16 09:53:26;;;;;;;0.80;0.80;;;;;;;18.19;100.00;100349.81;5029441;28;20467;-57
2022/10/16 09:55:53;;;;;;;0.70;0.47;;;;;;;18.17;100.00;100349.91;5029888;28;20517;-57
2022/10/16 09:58:24;;;;;;;0.83;0.40;;;;;;;18.23;100.00;100349.56;5029559;28;20533;-56
2022/10/16 10:00:53;;;;;;;0.50;0.40;;;;;;;18.27;100.00;100355.59;5029504;28;20452;-57
2022/10/16 10:03:46;;;;;;;1.70;1.03;;;;;;;18.53;100.00;100354.91;5029326;28;20452;-57
2022/10/16 10:06:31;;;;;;;0.60;0.50;;;;;;;19.02;100.00;100351.91;5025704;28;20464;-57
2022/10/16 10:09:19;;;;;;;0.97;0.87;;;;;;;18.71;100.00;100362.88;5011824;28;20454;-57
2022/10/16 10:12:16;;;;;;;0.67;0.43;;;;;;;18.64;100.00;100370.47;5003324;28;20430;-57
2022/10/16 10:14:46;;;;;;;0.70;0.50;;;;;;;18.69;100.00;100354.03;5018486;28;20494;-57
2022/10/16 10:17:17;;;;;;;0.50;0.40;;;;;;;18.84;100.00;100355.75;5029366;28;20448;-57
2022/10/16 10:20:11;;;;;;;0.50;0.30;;;;;;;18.96;100.00;100352.31;5029106;28;20495;-57
2022/10/16 10:22:45;;;;;;;1.33;0.70;;;;;;;18.69;100.00;100346.81;5016248;28;20828;-57
2022/10/16 10:25:19;;;;;;;1.00;0.83;;;;;;;18.55;100.00;100347.63;5029317;28;20454;-57
2022/10/16 10:28:17;;;;;;;0.50;0.50;;;;;;;18.64;100.00;100347.09;5029258;28;20498;-56
2022/10/16 10:30:53;;;;;;;4.70;1.83;;;;;;;18.81;100.00;100354.13;5011246;28;20526;-57
2022/10/16 10:33:41;;;;;;;1.47;0.60;;;;;;;19.05;100.00;100362.53;5029322;28;20451;-56
2022/10/16 10:36:20;;;;;;;2.60;0.50;;;;;;;19.13;100.00;100351.25;5028917;28;20498;-57
2022/10/16 10:39:00;;;;;;;1.27;0.70;;;;;;;18.99;100.00;100359.34;5028649;28;20495;-57
2022/10/16 10:41:29;;;;;;;0.50;0.50;;;;;;;18.85;100.00;100362.88;5029238;28;20912;-57
2022/10/16 10:44:13;;;;;;;0.87;0.70;;;;;;;19.02;100.00;100360.00;5024071;28;20704;-57
2022/10/16 10:47:01;;;;;;;0.40;0.30;;;;;;;18.93;100.00;100358.75;5011545;28;20824;-57
2022/10/16 10:49:27;;;;;;;0.50;0.40;;;;;;;18.93;100.00;100352.50;5007847;28;20467;-57
2022/10/16 10:51:57;;;;;;;0.50;0.30;;;;;;;18.83;100.00;100360.28;5028780;28;20465;-56
2022/10/16 10:54:43;;;;;;;0.77;0.77;;;;;;;18.98;100.00;100358.47;5028972;28;20456;-57
2022/10/16 10:57:16;;;;;;;6.30;0.70;;;;;;;19.11;100.00;100358.56;5028547;28;20452;-57
2022/10/16 10:59:52;;;;;;;1.57;0.60;;;;;;;19.13;100.00;100365.59;5028569;28;20544;-57
2022/10/16 11:02:44;;;;;;;0.90;0.63;;;;;;;19.03;100.00;100355.47;5005257;28;20965;-57
2022/10/16 11:05:22;;;;;;;0.60;0.50;;;;;;;19.06;100.00;100358.00;5028630;28;20521;-57
2022/10/16 11:07:58;;;;;;;0.70;0.60;;;;;;;19.03;100.00;100345.56;5028518;28;20451;-58
2022/10/16 11:10:30;;;;;;;0.50;0.30;;;;;;;19.23;100.00;100357.81;4987312;28;20925;-57
2022/10/16 11:13:30;;;;;;;0.67;0.60;;;;;;;19.32;100.00;100348.25;5028092;28;20933;-57
2022/10/16 11:16:07;;;;;;;0.70;0.50;;;;;;;19.19;100.00;100350.88;5022231;28;20414;-57
2022/10/16 11:18:47;;;;;;;0.60;0.50;;;;;;;19.68;100.00;100348.59;5028485;28;20968;-57
2022/10/16 11:21:18;;;;;;;0.50;0.30;;;;;;;19.59;100.00;100343.81;5025456;28;20427;-57
2022/10/16 11:23:59;;;;;;;1.30;0.70;;;;;;;19.89;100.00;100349.03;5019879;28;20882;-57
2022/10/16 11:26:30;;;;;;;2.27;0.60;;;;;;;20.11;100.00;100340.38;5011066;28;20488;-57
2022/10/16 11:28:59;;;;;;;0.67;0.53;;;;;;;20.20;100.00;100336.19;5028202;28;20439;-57
2022/10/16 11:31:25;;;;;;;0.73;0.60;;;;;;;20.24;100.00;100333.16;5003301;28;20950;-57
2022/10/16 11:34:02;;;;;;;3.87;0.80;;;;;;;20.34;100.00;100331.56;5028455;28;20882;-57
2022/10/16 11:36:40;;;;;;;0.70;0.50;;;;;;;20.14;100.00;100323.94;5028705;28;20426;-57